Time;durP1;ratioP1;P1;durP2;ratioP2;P2;SDS_P1;SDS_P2;PMS_P1;PMS_P2;Temp;Humidity;BMP_temperature;BMP_pressure;BME280_temperature;BME280_humidity;BME280_pressure;Samples;Min_cycle;Max_cycle;Signal;HPM_P1;HPM_P2
2022/01/01 00:00:17;;;;;;;25.45;12.90;;;;;;;11.12;92.64;101950.03;2071634;28;45787;-65
2022/01/01 00:01:20;;;;;;;27.40;13.38;;;;;;;11.12;92.42;101950.91;2072883;28;20089;-65
2022/01/01 00:02:23;;;;;;;28.42;13.27;;;;;;;11.11;92.69;101948.25;2072572;28;44449;-65
2022/01/01 00:03:37;;;;;;;31.92;14.25;;;;;;;11.12;93.06;101942.88;2073418;28;30994;-65
2022/01/01 00:04:42;;;;;;;28.10;14.10;;;;;;;11.12;92.91;101955.38;2072575;28;46659;-64
2022/01/01 00:05:44;;;;;;;26.95;12.20;;;;;;;11.13;92.63;101958.06;2080297;28;43162;-65
2022/01/01 00:06:46;;;;;;;27.45;12.95;;;;;;;11.13;92.97;101951.81;2079845;28;44618;-65
2022/01/01 00:07:48;;;;;;;29.10;12.93;;;;;;;11.13;92.62;101957.19;2072908;28;44665;-64
2022/01/01 00:08:50;;;;;;;28.00;13.43;;;;;;;11.12;92.91;101955.38;2079909;28;46860;-65
2022/01/01 00:09:52;;;;;;;26.77;12.43;;;;;;;11.13;92.69;101954.50;2079869;28;45188;-65
2022/01/01 00:10:54;;;;;;;28.35;12.75;;;;;;;11.14;92.87;101953.59;2072858;28;44713;-65
2022/01/01 00:12:16;;;;;;;27.02;12.63;;;;;;;11.14;92.74;101967.88;2073154;28;20038;-65
2022/01/01 00:13:18;;;;;;;28.42;12.82;;;;;;;11.14;92.35;101950.91;2072722;28;43755;-65
2022/01/01 00:14:19;;;;;;;27.73;13.07;;;;;;;11.12;93.05;101956.28;2072857;28;32120;-64
2022/01/01 00:15:21;;;;;;;29.63;13.02;;;;;;;11.14;92.89;101961.63;2072122;28;46192;-65
2022/01/01 00:16:23;;;;;;;29.88;13.23;;;;;;;11.12;92.35;101960.75;2072684;28;43275;-65
2022/01/01 00:17:25;;;;;;;31.15;13.48;;;;;;;11.11;92.66;101967.00;2072184;28;45730;-65
2022/01/01 00:18:27;;;;;;;33.00;12.95;;;;;;;11.11;92.60;101956.28;2072619;28;46257;-64
2022/01/01 00:19:28;;;;;;;31.65;13.35;;;;;;;11.11;93.11;101964.31;2072836;28;45344;-65
2022/01/01 00:20:30;;;;;;;28.58;12.00;;;;;;;11.09;92.65;101959.00;2079825;28;46710;-64
2022/01/01 00:21:32;;;;;;;25.15;12.60;;;;;;;11.09;92.90;101961.69;2079781;28;44435;-65
2022/01/01 00:22:34;;;;;;;27.08;12.80;;;;;;;11.08;92.85;101968.81;2072572;28;45592;-65
2022/01/01 00:23:35;;;;;;;29.75;13.15;;;;;;;11.07;92.73;101967.06;2072451;28;46077;-64
2022/01/01 00:24:37;;;;;;;28.15;12.85;;;;;;;11.08;92.34;101976.84;2072855;28;45159;-65
2022/01/01 00:25:39;;;;;;;25.40;12.10;;;;;;;11.08;92.61;101967.94;2072477;28;44476;-65
2022/01/01 00:26:45;;;;;;;32.63;12.75;;;;;;;11.08;92.69;101973.28;2072550;28;44514;-65
2022/01/01 00:27:47;;;;;;;31.50;13.50;;;;;;;11.08;92.75;101979.53;2074044;28;21703;-65
2022/01/01 00:28:51;;;;;;;25.33;12.60;;;;;;;11.10;92.98;101975.97;2072391;28;44068;-64
2022/01/01 00:29:54;;;;;;;27.48;12.20;;;;;;;11.11;92.74;101977.72;2072584;28;43541;-65
2022/01/01 00:30:55;;;;;;;28.55;12.13;;;;;;;11.11;92.81;101970.59;2072650;28;44056;-64
2022/01/01 00:31:57;;;;;;;28.58;12.05;;;;;;;11.11;92.52;101975.97;2072105;28;47231;-65
2022/01/01 00:32:59;;;;;;;28.65;12.02;;;;;;;11.11;92.36;101975.03;2072543;28;44195;-64
2022/01/01 00:34:00;;;;;;;28.48;12.15;;;;;;;11.08;92.44;101973.28;2072054;28;47853;-64
2022/01/01 00:35:03;;;;;;;28.73;12.40;;;;;;;11.11;92.47;101972.34;2072682;28;43487;-65
2022/01/01 00:36:06;;;;;;;29.80;11.70;;;;;;;11.10;92.56;101974.16;2072770;28;32623;-65
2022/01/01 00:37:07;;;;;;;26.13;12.30;;;;;;;11.10;92.30;101971.47;2072716;28;44675;-65
2022/01/01 00:38:12;;;;;;;27.27;11.85;;;;;;;11.10;92.45;101976.84;2072262;28;44979;-65
2022/01/01 00:39:13;;;;;;;27.67;11.82;;;;;;;11.11;92.48;101977.72;2072719;28;37495;-65
2022/01/01 00:40:15;;;;;;;31.55;13.05;;;;;;;11.10;92.60;101975.97;2072167;28;44897;-64
2022/01/01 00:41:17;;;;;;;32.33;13.27;;;;;;;11.08;92.89;101975.97;2080683;28;30148;-65
2022/01/01 00:42:20;;;;;;;23.95;12.70;;;;;;;11.10;92.63;101970.59;2079793;28;44683;-65
2022/01/01 00:43:24;;;;;;;30.95;12.43;;;;;;;11.08;92.91;101971.50;2079636;28;44343;-64
2022/01/01 00:44:25;;;;;;;29.40;11.73;;;;;;;11.11;92.56;101981.31;2079945;28;33785;-65
2022/01/01 00:45:28;;;;;;;29.40;12.43;;;;;;;11.10;92.51;101967.91;2072622;28;43659;-65
2022/01/01 00:46:29;;;;;;;28.83;12.10;;;;;;;11.11;92.31;101969.69;2080565;28;44563;-64
2022/01/01 00:47:31;;;;;;;23.77;11.77;;;;;;;11.10;92.47;101971.47;2079493;28;46721;-65
2022/01/01 00:48:33;;;;;;;27.80;12.18;;;;;;;11.10;92.73;101962.56;2079885;28;44558;-64
2022/01/01 00:49:54;;;;;;;31.20;12.40;;;;;;;11.08;92.49;101957.22;2072934;28;20046;-65
2022/01/01 00:50:57;;;;;;;33.47;12.55;;;;;;;11.08;92.49;101958.09;2072255;28;44679;-64
2022/01/01 00:51:59;;;;;;;31.90;11.88;;;;;;;11.07;92.45;101961.69;2072435;28;43919;-64
2022/01/01 00:53:01;;;;;;;27.38;11.48;;;;;;;11.07;92.29;101959.00;2072449;28;44979;-65
2022/01/01 00:54:03;;;;;;;21.33;11.40;;;;;;;11.07;92.64;101961.69;2072592;28;43955;-65
2022/01/01 00:55:05;;;;;;;25.85;10.73;;;;;;;11.06;92.75;101954.53;2072966;28;30057;-65
2022/01/01 00:56:07;;;;;;;25.95;12.10;;;;;;;11.08;92.41;101962.56;2072102;28;46637;-65
2022/01/01 00:57:09;;;;;;;26.08;12.32;;;;;;;11.06;92.48;101967.94;2071591;28;45297;-65
2022/01/01 00:58:11;;;;;;;32.22;11.70;;;;;;;11.05;92.52;101968.88;2071925;28;45244;-66
2022/01/01 00:59:12;;;;;;;30.60;12.43;;;;;;;11.05;92.63;101968.88;2071988;28;42611;-65
2022/01/01 01:00:14;;;;;;;29.35;12.05;;;;;;;11.06;92.53;101972.41;2071784;28;44436;-65
2022/01/01 01:01:16;;;;;;;29.67;12.07;;;;;;;11.05;92.47;101968.88;2072693;28;34737;-65
2022/01/01 01:02:18;;;;;;;26.77;12.25;;;;;;;11.06;92.74;101975.97;2072103;28;44414;-65
2022/01/01 01:03:20;;;;;;;34.85;12.40;;;;;;;11.05;92.57;101966.19;2072531;28;29505;-65
2022/01/01 01:04:22;;;;;;;32.38;12.73;;;;;;;11.06;92.30;101967.06;2072295;28;43456;-65
2022/01/01 01:05:24;;;;;;;32.58;13.05;;;;;;;11.04;92.71;101969.75;2072442;28;43402;-65
2022/01/01 01:06:26;;;;;;;33.17;13.88;;;;;;;11.04;92.45;101972.44;2072572;28;31355;-65
2022/01/01 01:07:28;;;;;;;32.28;12.02;;;;;;;11.02;92.35;101971.56;2072467;28;42942;-65
2022/01/01 01:08:32;;;;;;;31.65;12.15;;;;;;;11.01;92.82;101972.44;2072339;28;45257;-65
2022/01/01 01:09:34;;;;;;;28.90;12.60;;;;;;;11.04;92.57;101979.59;2072851;28;43543;-65
2022/01/01 01:10:38;;;;;;;28.55;12.85;;;;;;;11.04;92.63;101987.63;2072064;28;44260;-64
2022/01/01 01:11:45;;;;;;;34.30;13.18;;;;;;;11.04;92.66;101998.34;2072392;28;46177;-65
2022/01/01 01:12:50;;;;;;;32.20;12.07;;;;;;;11.05;92.53;101994.75;2072100;28;43556;-65
2022/01/01 01:13:58;;;;;;;30.77;12.70;;;;;;;11.04;92.49;101996.53;2072191;28;45332;-65
2022/01/01 01:15:00;;;;;;;29.42;12.20;;;;;;;11.04;92.40;101995.66;2071849;28;46985;-65
2022/01/01 01:16:04;;;;;;;32.58;12.80;;;;;;;11.03;92.29;101992.06;2071906;28;45577;-65
2022/01/01 01:17:08;;;;;;;33.22;13.68;;;;;;;11.03;92.58;102001.91;2072117;28;30567;-65
2022/01/01 01:18:10;;;;;;;33.70;13.18;;;;;;;11.04;92.38;101999.22;2079773;28;43272;-65
2022/01/01 01:19:12;;;;;;;30.88;14.05;;;;;;;11.03;92.30;102002.78;2079190;28;44425;-65
2022/01/01 01:20:17;;;;;;;35.35;13.77;;;;;;;11.03;92.48;101996.56;2079981;28;45833;-65
2022/01/01 01:21:22;;;;;;;31.90;13.80;;;;;;;11.01;92.46;101991.19;2079322;28;45608;-65
2022/01/01 01:22:26;;;;;;;30.88;13.05;;;;;;;11.00;92.58;101992.13;2072829;28;30005;-65
2022/01/01 01:23:28;;;;;;;29.13;13.55;;;;;;;11.01;92.83;102006.41;2072261;28;44840;-65
2022/01/01 01:24:30;;;;;;;31.85;14.25;;;;;;;11.00;93.06;102001.94;2072074;28;44287;-65
2022/01/01 01:25:39;;;;;;;38.17;15.27;;;;;;;10.98;92.60;102003.72;2072234;28;44935;-65
2022/01/01 01:26:48;;;;;;;30.13;13.48;;;;;;;10.98;92.69;102001.97;2072291;28;45552;-65
2022/01/01 01:27:50;;;;;;;33.95;13.57;;;;;;;10.97;92.89;102007.34;2072397;28;45561;-65
2022/01/01 01:28:52;;;;;;;31.40;15.40;;;;;;;10.96;93.05;102006.41;2071915;28;43540;-64
2022/01/01 01:29:56;;;;;;;33.28;15.55;;;;;;;10.95;92.72;102009.13;2072331;28;45682;-65
2022/01/01 01:30:57;;;;;;;35.75;15.10;;;;;;;10.96;93.04;102018.94;2072572;28;28342;-64
2022/01/01 01:31:59;;;;;;;30.17;14.15;;;;;;;10.96;92.72;102011.78;2072288;28;42975;-65
2022/01/01 01:33:01;;;;;;;33.53;15.43;;;;;;;10.95;92.85;102018.06;2071954;28;43056;-65
2022/01/01 01:34:03;;;;;;;35.70;14.52;;;;;;;10.95;93.01;102015.38;2072232;28;45815;-65
2022/01/01 01:35:06;;;;;;;35.75;16.20;;;;;;;10.95;92.80;102014.50;2072167;28;45467;-65
2022/01/01 01:36:08;;;;;;;32.80;16.10;;;;;;;10.94;93.01;102018.94;2072112;28;46443;-65
2022/01/01 01:37:10;;;;;;;33.13;15.25;;;;;;;10.94;92.91;102016.28;2072313;28;42538;-65
2022/01/01 01:38:12;;;;;;;31.05;15.50;;;;;;;10.94;92.86;102021.63;2071704;28;44092;-65
2022/01/01 01:39:14;;;;;;;32.17;15.60;;;;;;;10.93;92.78;102017.19;2073014;28;27301;-65
2022/01/01 01:40:16;;;;;;;34.45;15.38;;;;;;;10.94;92.96;102012.72;2072086;28;44150;-65
2022/01/01 01:41:17;;;;;;;40.78;15.93;;;;;;;10.93;92.78;102019.88;2072258;28;44945;-65
2022/01/01 01:42:19;;;;;;;35.53;15.68;;;;;;;10.93;93.19;102022.53;2072063;28;44586;-65
2022/01/01 01:43:21;;;;;;;34.67;16.27;;;;;;;10.93;92.66;102017.19;2072041;28;45443;-65
2022/01/01 01:44:41;;;;;;;33.55;16.50;;;;;;;10.93;92.69;102018.94;2072295;28;44742;-65
2022/01/01 01:45:44;;;;;;;35.28;16.17;;;;;;;10.93;92.73;102027.91;2072591;28;29202;-65
2022/01/01 01:46:46;;;;;;;32.17;15.55;;;;;;;10.94;93.00;102023.44;2072603;28;45057;-65
2022/01/01 01:47:50;;;;;;;41.83;17.45;;;;;;;10.92;92.75;102020.75;2071839;28;43670;-65
2022/01/01 01:48:52;;;;;;;42.50;17.70;;;;;;;10.93;93.01;102021.63;2071690;28;45692;-65
2022/01/01 01:49:55;;;;;;;40.63;18.55;;;;;;;10.92;92.97;102033.28;2072261;28;43486;-65
2022/01/01 01:50:57;;;;;;;35.38;16.85;;;;;;;10.93;92.67;102032.34;2071558;28;45305;-64
2022/01/01 01:51:59;;;;;;;40.47;17.70;;;;;;;10.92;92.59;102034.16;2079812;28;45126;-64
2022/01/01 01:53:01;;;;;;;38.80;17.27;;;;;;;10.93;92.74;102035.03;2079771;28;31460;-65
2022/01/01 01:54:03;;;;;;;40.45;16.10;;;;;;;10.91;92.58;102035.06;2072586;28;44260;-65
2022/01/01 01:55:09;;;;;;;36.22;15.63;;;;;;;10.91;92.92;102032.38;2072130;28;45219;-64
2022/01/01 01:56:11;;;;;;;34.90;16.75;;;;;;;10.92;92.73;102019.88;2071808;28;43430;-65
2022/01/01 01:57:13;;;;;;;30.50;16.23;;;;;;;10.93;92.79;102021.63;2071974;28;37646;-65
2022/01/01 01:58:16;;;;;;;33.90;16.30;;;;;;;10.92;92.50;102019.88;2079319;28;44797;-65
2022/01/01 01:59:18;;;;;;;37.10;16.42;;;;;;;10.91;92.85;102029.72;2080076;28;31020;-65
2022/01/01 02:01:41;;;;;;;31.63;16.00;;;;;;;10.91;92.59;102032.38;2079795;28;44545;-65
2022/01/01 02:02:43;;;;;;;39.15;17.83;;;;;;;10.91;92.69;102034.16;2079263;28;45453;-65
2022/01/01 02:03:45;;;;;;;34.33;17.52;;;;;;;10.91;92.67;102039.50;2071317;28;44947;-65
2022/01/01 02:04:47;;;;;;;38.22;16.60;;;;;;;10.89;93.00;102028.81;2063374;28;34629;-65
2022/01/01 02:05:50;;;;;;;38.88;17.58;;;;;;;10.92;92.75;102041.31;2071444;28;46175;-65
2022/01/01 02:06:52;;;;;;;42.85;17.50;;;;;;;10.90;92.55;102044.00;2072308;28;26813;-65
2022/01/01 02:07:57;;;;;;;39.17;17.08;;;;;;;10.90;92.78;102049.34;2071778;28;44297;-65
2022/01/01 02:08:59;;;;;;;36.10;16.13;;;;;;;10.92;92.67;102046.66;2072156;28;46237;-64
2022/01/01 02:10:01;;;;;;;44.55;17.63;;;;;;;10.89;92.40;102042.19;2072487;28;24506;-65
2022/01/01 02:11:03;;;;;;;39.03;16.77;;;;;;;10.91;92.67;102056.50;2072156;28;45305;-65
2022/01/01 02:12:08;;;;;;;39.70;17.27;;;;;;;10.91;92.72;102047.56;2071844;28;44422;-65
2022/01/01 02:13:19;;;;;;;37.17;17.25;;;;;;;10.91;92.27;102035.06;2079390;28;45804;-65
2022/01/01 02:14:33;;;;;;;42.13;16.35;;;;;;;10.91;92.27;102045.78;2077577;28;45827;-65
2022/01/01 02:15:57;;;;;;;43.17;16.45;;;;;;;10.90;92.87;102035.94;2072224;28;32820;-64
2022/01/01 02:18:05;;;;;;;33.30;16.17;;;;;;;10.89;92.65;102026.13;2071784;28;43455;-65
2022/01/01 02:19:07;;;;;;;41.80;17.02;;;;;;;10.89;92.88;102031.47;2071697;28;45231;-65
2022/01/01 02:20:18;;;;;;;40.70;17.40;;;;;;;10.87;92.74;102025.25;2071433;28;47915;-65
2022/01/01 02:21:22;;;;;;;38.10;17.10;;;;;;;10.87;92.60;102028.84;2071954;28;43373;-65
2022/01/01 02:22:24;;;;;;;35.47;15.77;;;;;;;10.86;92.73;102023.50;2079434;28;44339;-65
2022/01/01 02:23:27;;;;;;;37.58;17.48;;;;;;;10.86;92.78;102026.16;2079258;28;44673;-65
2022/01/01 02:24:31;;;;;;;43.33;17.30;;;;;;;10.87;92.67;102031.53;2071859;28;45671;-65
2022/01/01 02:25:33;;;;;;;36.58;16.38;;;;;;;10.84;92.97;102028.84;2071906;28;46170;-65
2022/01/01 02:26:34;;;;;;;35.33;16.40;;;;;;;10.85;92.74;102029.72;2072294;28;32406;-64
2022/01/01 02:27:38;;;;;;;37.53;16.67;;;;;;;10.85;92.62;102029.72;2071671;28;44274;-65
2022/01/01 02:28:45;;;;;;;39.13;17.40;;;;;;;10.85;92.72;102035.97;2079421;28;44440;-65
2022/01/01 02:29:46;;;;;;;45.30;17.10;;;;;;;10.83;92.45;102037.78;2078074;28;44285;-65
2022/01/01 02:30:49;;;;;;;40.45;16.38;;;;;;;10.85;92.39;102040.44;2071897;28;46507;-65
2022/01/01 02:31:51;;;;;;;33.50;16.77;;;;;;;10.84;92.97;102050.28;2072046;28;26654;-65
2022/01/01 02:32:53;;;;;;;41.60;17.52;;;;;;;10.84;92.67;102044.03;2071142;28;44458;-65
2022/01/01 02:33:55;;;;;;;35.90;16.48;;;;;;;10.85;92.46;102045.81;2079524;28;44674;-65
2022/01/01 02:34:56;;;;;;;40.05;17.33;;;;;;;10.83;92.85;102039.56;2079335;28;28620;-65
2022/01/01 02:35:59;;;;;;;37.08;15.90;;;;;;;10.84;92.70;102044.03;2071730;28;45087;-65
2022/01/01 02:37:00;;;;;;;36.17;17.67;;;;;;;10.83;92.79;102036.91;2079543;28;44400;-64
2022/01/01 02:38:02;;;;;;;38.25;15.93;;;;;;;10.83;92.83;102039.56;2079163;28;44409;-65
2022/01/01 02:39:18;;;;;;;37.33;16.23;;;;;;;10.82;92.51;102041.38;2071903;28;46165;-65
2022/01/01 02:40:19;;;;;;;38.08;16.35;;;;;;;10.81;92.73;102047.63;2072153;28;45492;-65
2022/01/01 02:41:21;;;;;;;40.78;16.27;;;;;;;10.83;92.60;102042.25;2071595;28;44046;-65
2022/01/01 02:42:23;;;;;;;39.08;16.13;;;;;;;10.80;92.60;102045.84;2071568;28;45881;-65
2022/01/01 02:43:26;;;;;;;37.70;16.92;;;;;;;10.81;92.46;102038.69;2071859;28;43974;-65
2022/01/01 02:44:28;;;;;;;45.92;17.98;;;;;;;10.81;92.96;102044.06;2071350;28;45312;-65
2022/01/01 02:45:31;;;;;;;37.35;16.83;;;;;;;10.80;92.48;102042.25;2071927;28;43270;-65
2022/01/01 02:46:34;;;;;;;37.53;16.42;;;;;;;10.80;92.62;102044.94;2071105;28;46072;-65
2022/01/01 02:47:37;;;;;;;39.00;17.33;;;;;;;10.79;92.80;102040.50;2071605;28;44967;-65
2022/01/01 02:48:38;;;;;;;35.63;15.23;;;;;;;10.79;92.85;102053.91;2072235;28;28395;-65
2022/01/01 02:49:40;;;;;;;38.55;16.58;;;;;;;10.79;92.82;102051.22;2071432;28;45143;-65
2022/01/01 02:50:42;;;;;;;42.47;16.63;;;;;;;10.78;92.98;102052.09;2071457;28;43132;-65
2022/01/01 02:51:43;;;;;;;37.47;16.15;;;;;;;10.79;93.15;102059.25;2072405;28;27811;-65
2022/01/01 02:52:47;;;;;;;34.13;15.93;;;;;;;10.78;92.82;102054.78;2071586;28;46153;-64
2022/01/01 02:53:49;;;;;;;39.22;15.88;;;;;;;10.80;93.15;102055.66;2079461;28;45689;-65
2022/01/01 02:54:51;;;;;;;33.45;16.00;;;;;;;10.79;92.81;102057.44;2078466;28;45348;-64
2022/01/01 02:55:52;;;;;;;31.48;14.38;;;;;;;10.79;92.79;102062.81;2071676;28;44436;-65
2022/01/01 02:56:54;;;;;;;35.53;15.70;;;;;;;10.81;92.79;102065.50;2071721;28;45548;-65
2022/01/01 02:58:00;;;;;;;37.22;15.57;;;;;;;10.79;92.80;102065.50;2071598;28;44446;-65
2022/01/01 02:59:02;;;;;;;34.35;14.52;;;;;;;10.79;92.98;102075.31;2078537;28;43937;-64
2022/01/01 03:00:06;;;;;;;38.60;15.60;;;;;;;10.79;92.80;102078.00;2078634;28;45143;-65
2022/01/01 03:01:11;;;;;;;34.75;14.88;;;;;;;10.77;92.83;102069.97;2072212;28;28965;-65
2022/01/01 03:02:13;;;;;;;39.05;16.20;;;;;;;10.77;92.76;102074.44;2071823;28;44295;-65
2022/01/01 03:03:16;;;;;;;32.50;14.57;;;;;;;10.78;92.97;102069.06;2072684;28;20046;-65
2022/01/01 03:04:18;;;;;;;40.85;15.60;;;;;;;10.79;92.81;102073.53;2071658;28;44643;-65
2022/01/01 03:05:20;;;;;;;46.03;15.93;;;;;;;10.80;92.79;102069.06;2071562;28;44338;-65
2022/01/01 03:06:22;;;;;;;34.55;14.50;;;;;;;10.79;92.85;102076.22;2072496;28;27359;-65
2022/01/01 03:07:24;;;;;;;39.15;15.70;;;;;;;10.78;92.85;102071.72;2071833;28;45503;-65
2022/01/01 03:08:27;;;;;;;34.38;15.30;;;;;;;10.78;92.96;102079.78;2071174;28;45386;-65
2022/01/01 03:09:35;;;;;;;42.78;16.25;;;;;;;10.77;92.84;102074.44;2071775;28;43753;-65
2022/01/01 03:10:36;;;;;;;44.47;16.60;;;;;;;10.76;92.61;102078.00;2071447;28;45568;-65
2022/01/01 03:11:38;;;;;;;42.55;16.70;;;;;;;10.76;92.89;102078.91;2071545;28;46215;-65
2022/01/01 03:12:40;;;;;;;40.13;14.20;;;;;;;10.76;92.89;102078.91;2071388;28;44168;-65
2022/01/01 03:13:42;;;;;;;39.72;15.70;;;;;;;10.77;93.11;102071.78;2072121;28;29993;-65
2022/01/01 03:14:47;;;;;;;42.83;15.40;;;;;;;10.75;92.66;102074.44;2071357;28;44542;-64
2022/01/01 03:15:49;;;;;;;45.40;15.68;;;;;;;10.76;92.98;102078.00;2071753;28;44293;-65
2022/01/01 03:16:51;;;;;;;41.20;15.38;;;;;;;10.75;92.83;102078.91;2079237;28;43963;-65
2022/01/01 03:17:55;;;;;;;39.55;15.68;;;;;;;10.73;92.86;102084.28;2079638;28;20125;-65
2022/01/01 03:18:57;;;;;;;43.67;16.20;;;;;;;10.73;92.91;102088.72;2071143;28;46546;-65
2022/01/01 03:20:01;;;;;;;39.58;16.27;;;;;;;10.72;93.04;102092.31;2072028;28;44801;-65
2022/01/01 03:21:04;;;;;;;34.63;16.20;;;;;;;10.73;93.11;102096.78;2072738;28;45428;-64
2022/01/01 03:22:06;;;;;;;43.92;17.13;;;;;;;10.71;92.74;102094.09;2080531;28;45803;-65
2022/01/01 03:23:10;;;;;;;37.17;15.93;;;;;;;10.72;92.73;102097.69;2079857;28;44133;-64
2022/01/01 03:24:11;;;;;;;39.78;14.98;;;;;;;10.73;92.85;102104.81;2072664;28;46705;-65
2022/01/01 03:25:16;;;;;;;42.03;15.50;;;;;;;10.72;92.74;102095.88;2074383;28;20127;-65
2022/01/01 03:26:18;;;;;;;40.42;17.10;;;;;;;10.73;92.88;102088.72;2072582;28;44299;-65
2022/01/01 03:27:19;;;;;;;44.65;17.38;;;;;;;10.71;92.45;102086.06;2072566;28;45231;-65
2022/01/01 03:28:21;;;;;;;36.45;15.93;;;;;;;10.73;92.84;102094.09;2072760;28;43551;-65
2022/01/01 03:29:23;;;;;;;47.42;17.35;;;;;;;10.72;92.77;102090.53;2072470;28;44331;-65
2022/01/01 03:30:25;;;;;;;43.88;17.58;;;;;;;10.73;92.96;102083.38;2073054;28;45603;-65
2022/01/01 03:31:27;;;;;;;38.67;15.70;;;;;;;10.73;92.63;102083.38;2072800;28;45687;-65
2022/01/01 03:32:28;;;;;;;38.38;16.58;;;;;;;10.74;93.10;102087.84;2072899;28;32203;-65
2022/01/01 03:33:30;;;;;;;38.85;17.58;;;;;;;10.73;93.07;102078.03;2072977;28;44416;-65
2022/01/01 03:34:32;;;;;;;41.95;18.20;;;;;;;10.73;93.07;102084.28;2072524;28;45555;-65
2022/01/01 03:35:34;;;;;;;40.63;18.27;;;;;;;10.72;92.83;102073.56;2073680;28;28400;-65
2022/01/01 03:36:38;;;;;;;40.10;17.65;;;;;;;10.72;93.12;102078.94;2072740;28;45512;-65
2022/01/01 03:37:40;;;;;;;41.38;17.30;;;;;;;10.72;92.86;102081.63;2072992;28;45314;-65
2022/01/01 03:38:42;;;;;;;44.20;18.73;;;;;;;10.72;93.27;102084.28;2080002;28;44715;-65
2022/01/01 03:39:43;;;;;;;41.38;16.83;;;;;;;10.73;93.27;102088.72;2080121;28;45945;-65
2022/01/01 03:40:45;;;;;;;35.40;17.83;;;;;;;10.72;93.04;102076.25;2072818;28;43774;-65
2022/01/01 03:41:47;;;;;;;45.45;18.38;;;;;;;10.71;93.11;102080.69;2073245;28;39473;-65
2022/01/01 03:42:48;;;;;;;46.17;19.73;;;;;;;10.70;93.13;102076.25;2072663;28;46592;-65
2022/01/01 03:43:50;;;;;;;44.22;19.08;;;;;;;10.71;92.77;102080.69;2073573;28;27741;-65
2022/01/01 03:44:52;;;;;;;42.72;18.20;;;;;;;10.70;92.89;102095.91;2072563;28;45364;-65
2022/01/01 03:45:56;;;;;;;41.92;17.92;;;;;;;10.70;93.11;102082.50;2080345;28;43814;-65
2022/01/01 03:47:09;;;;;;;50.17;18.80;;;;;;;10.70;93.21;102086.97;2080358;28;45658;-64
2022/01/01 03:48:11;;;;;;;41.22;18.88;;;;;;;10.70;93.13;102078.94;2072411;28;44321;-65
2022/01/01 03:49:13;;;;;;;41.78;19.23;;;;;;;10.70;92.97;102087.84;2072710;28;44665;-64
2022/01/01 03:50:14;;;;;;;49.17;19.85;;;;;;;10.71;92.95;102086.06;2072887;28;43944;-65
2022/01/01 03:51:16;;;;;;;48.47;19.17;;;;;;;10.72;92.88;102085.19;2072825;28;46173;-64
2022/01/01 03:52:18;;;;;;;42.75;19.58;;;;;;;10.73;92.68;102094.09;2072227;28;44854;-65
2022/01/01 03:53:21;;;;;;;46.05;21.58;;;;;;;10.72;92.81;102081.63;2072914;28;44270;-65
2022/01/01 03:54:23;;;;;;;43.47;20.67;;;;;;;10.72;92.88;102078.94;2073459;28;30921;-65
2022/01/01 03:55:27;;;;;;;47.97;20.75;;;;;;;10.72;92.65;102084.28;2072960;28;44309;-65
2022/01/01 03:56:29;;;;;;;47.38;21.00;;;;;;;10.71;92.91;102083.38;2072816;28;46404;-65
2022/01/01 03:57:30;;;;;;;49.00;20.98;;;;;;;10.70;92.60;102085.19;2073436;28;28389;-65
2022/01/01 03:58:32;;;;;;;52.80;21.50;;;;;;;10.71;92.61;102080.69;2072582;28;43075;-65
2022/01/01 03:59:34;;;;;;;46.03;21.27;;;;;;;10.70;92.63;102079.81;2073029;28;45833;-65
2022/01/01 04:00:39;;;;;;;53.30;20.63;;;;;;;10.71;92.39;102083.38;2072529;28;45038;-64
2022/01/01 04:01:41;;;;;;;45.35;20.67;;;;;;;10.70;92.76;102082.50;2073438;28;28450;-65
2022/01/01 04:02:43;;;;;;;49.80;21.80;;;;;;;10.70;92.81;102092.34;2072218;28;42781;-65
2022/01/01 04:03:45;;;;;;;45.35;21.90;;;;;;;10.70;92.86;102084.31;2072697;28;44520;-65
2022/01/01 04:04:47;;;;;;;56.05;22.05;;;;;;;10.69;92.88;102090.53;2072345;28;45960;-65
2022/01/01 04:05:49;;;;;;;47.47;21.63;;;;;;;10.69;92.78;102098.56;2072778;28;44643;-65
2022/01/01 04:06:52;;;;;;;52.60;22.25;;;;;;;10.68;92.49;102095.00;2072814;28;46701;-65
2022/01/01 04:07:53;;;;;;;52.10;21.23;;;;;;;10.68;92.65;102103.06;2073138;28;36214;-65
2022/01/01 04:08:55;;;;;;;51.63;23.05;;;;;;;10.68;92.53;102102.16;2073138;28;45692;-65
2022/01/01 04:09:58;;;;;;;47.13;23.15;;;;;;;10.68;92.32;102111.09;2072800;28;46600;-65
2022/01/01 04:11:02;;;;;;;51.38;23.33;;;;;;;10.68;92.74;102108.41;2073609;28;20125;-65
2022/01/01 04:12:04;;;;;;;45.28;21.85;;;;;;;10.66;92.41;102102.16;2072641;28;45576;-64
2022/01/01 04:13:08;;;;;;;50.72;22.80;;;;;;;10.66;92.47;102104.84;2072668;28;44459;-65
2022/01/01 04:14:12;;;;;;;47.67;21.90;;;;;;;10.66;92.66;102109.31;2072652;28;45481;-65
2022/01/01 04:15:14;;;;;;;53.40;22.80;;;;;;;10.66;92.48;102104.84;2072700;28;40270;-65
2022/01/01 04:16:18;;;;;;;58.80;23.58;;;;;;;10.65;92.70;102104.84;2072475;28;43210;-65
2022/01/01 04:17:20;;;;;;;50.78;23.83;;;;;;;10.65;92.64;102110.22;2072729;28;45857;-65
2022/01/01 04:18:28;;;;;;;54.28;24.83;;;;;;;10.64;92.80;102113.78;2072315;28;45924;-65
2022/01/01 04:19:39;;;;;;;51.40;23.77;;;;;;;10.64;92.65;102113.78;2072606;28;45623;-64
2022/01/01 04:20:44;;;;;;;;;;;;;;;10.64;92.76;102112.00;2073057;28;45488;-65
2022/01/01 04:21:46;;;;;;;54.67;23.45;;;;;;;10.63;92.84;102115.56;2072994;28;43670;-65
2022/01/01 04:22:48;;;;;;;57.95;24.67;;;;;;;10.62;92.85;102113.81;2072141;28;44063;-65
2022/01/01 04:23:49;;;;;;;58.63;24.65;;;;;;;10.61;93.12;102117.38;2073153;28;31336;-65
2022/01/01 04:24:51;;;;;;;57.17;25.25;;;;;;;10.61;93.05;102117.38;2072624;28;42910;-65
2022/01/01 04:25:57;;;;;;;47.65;24.13;;;;;;;10.62;92.99;102112.88;2072421;28;46430;-65
2022/01/01 04:26:59;;;;;;;50.22;24.85;;;;;;;10.62;92.99;102112.88;2072757;28;44676;-65
2022/01/01 04:28:01;;;;;;;59.47;26.10;;;;;;;10.61;92.81;102117.38;2079902;28;45406;-65
2022/01/01 04:29:06;;;;;;;52.25;26.73;;;;;;;10.61;93.04;102117.38;2080507;28;28747;-65
2022/01/01 04:30:08;;;;;;;55.13;25.27;;;;;;;10.61;93.33;102122.72;2079858;28;45571;-66
2022/01/01 04:31:11;;;;;;;52.08;25.92;;;;;;;10.61;93.11;102116.50;2080009;28;45142;-65
2022/01/01 04:32:14;;;;;;;56.50;27.02;;;;;;;10.59;93.14;102113.81;2079673;28;44711;-65
2022/01/01 04:33:16;;;;;;;55.47;26.95;;;;;;;10.59;93.26;102108.44;2072463;28;44168;-65
2022/01/01 04:34:18;;;;;;;53.92;26.30;;;;;;;10.60;92.84;102118.25;2079749;28;46387;-64
2022/01/01 04:35:19;;;;;;;62.85;26.92;;;;;;;10.60;93.30;102114.69;2080099;28;44364;-65
2022/01/01 04:36:22;;;;;;;56.22;27.60;;;;;;;10.59;93.41;102111.13;2072520;28;43083;-65
2022/01/01 04:37:23;;;;;;;59.42;27.98;;;;;;;10.60;93.31;102106.66;2072328;28;44940;-65
2022/01/01 04:38:39;;;;;;;60.53;29.55;;;;;;;10.61;93.33;102105.78;2072486;28;44171;-65
2022/01/01 04:39:41;;;;;;;65.38;30.77;;;;;;;10.60;93.36;102101.31;2072453;28;44930;-63
2022/01/01 04:40:43;;;;;;;64.05;30.75;;;;;;;10.60;93.45;102098.63;2072162;28;43468;-65
2022/01/01 04:41:45;;;;;;;66.18;31.02;;;;;;;10.60;93.25;102098.63;2072546;28;44062;-64
2022/01/01 04:42:47;;;;;;;71.18;32.10;;;;;;;10.59;93.40;102108.44;2072537;28;45703;-65
2022/01/01 04:43:49;;;;;;;66.97;33.05;;;;;;;10.60;93.40;102101.31;2072066;28;44139;-64
2022/01/01 04:44:51;;;;;;;65.20;32.13;;;;;;;10.60;93.30;102110.22;2072482;28;46681;-65
2022/01/01 04:45:52;;;;;;;65.43;32.65;;;;;;;10.59;93.42;102103.09;2072779;28;43554;-65
2022/01/01 04:46:54;;;;;;;65.28;31.73;;;;;;;10.59;93.32;102105.78;2072389;28;45701;-65
2022/01/01 04:47:56;;;;;;;69.43;34.35;;;;;;;10.60;93.33;102115.56;2072409;28;38467;-65
2022/01/01 04:48:58;;;;;;;74.82;34.90;;;;;;;10.59;93.48;102116.50;2072435;28;44334;-65